sensor_id;sensor_type;location;lat;lon;timestamp;pressure;altitude;pressure_sealevel;temperature;humidity
27425;BME280;15244;49.088;11.886;2023-02-03T00:03:35;96641.06;;;5.92;59.66
27425;BME280;15244;49.088;11.886;2023-02-03T00:08:40;96640.44;;;5.95;60.27
27425;BME280;15244;49.088;11.886;2023-02-03T00:13:49;96637.56;;;5.92;60.06
27425;BME280;15244;49.088;11.886;2023-02-03T00:18:53;96632.16;;;5.92;59.95
27425;BME280;15244;49.088;11.886;2023-02-03T00:24:01;96643.16;;;5.86;60.27
27425;BME280;15244;49.088;11.886;2023-02-03T00:29:05;96644.63;;;5.84;60.04
27425;BME280;15244;49.088;11.886;2023-02-03T00:34:09;96638.69;;;5.91;60.57
27425;BME280;15244;49.088;11.886;2023-02-03T00:39:11;96637.63;;;5.83;60.84
27425;BME280;15244;49.088;11.886;2023-02-03T00:44:19;96625.56;;;5.80;60.33
27425;BME280;15244;49.088;11.886;2023-02-03T00:49:29;96637.06;;;5.77;61.19
27425;BME280;15244;49.088;11.886;2023-02-03T00:54:37;96653.47;;;5.72;61.22
27425;BME280;15244;49.088;11.886;2023-02-03T00:59:41;96648.84;;;5.73;61.01
27425;BME280;15244;49.088;11.886;2023-02-03T01:04:45;96652.81;;;5.75;61.23
27425;BME280;15244;49.088;11.886;2023-02-03T01:09:52;96644.50;;;5.80;60.76
27425;BME280;15244;49.088;11.886;2023-02-03T01:14:56;96636.38;;;5.80;61.00
27425;BME280;15244;49.088;11.886;2023-02-03T01:20:01;96641.44;;;5.82;60.74
27425;BME280;15244;49.088;11.886;2023-02-03T01:25:08;96635.44;;;5.76;61.17
27425;BME280;15244;49.088;11.886;2023-02-03T01:30:16;96636.13;;;5.73;60.68
27425;BME280;15244;49.088;11.886;2023-02-03T01:35:20;96636.91;;;5.74;60.91
27425;BME280;15244;49.088;11.886;2023-02-03T01:40:28;96641.22;;;5.75;60.73
27425;BME280;15244;49.088;11.886;2023-02-03T01:45:41;96633.41;;;5.73;61.02
27425;BME280;15244;49.088;11.886;2023-02-03T01:50:49;96627.00;;;5.78;60.76
27425;BME280;15244;49.088;11.886;2023-02-03T01:55:51;96621.91;;;5.76;60.72
27425;BME280;15244;49.088;11.886;2023-02-03T02:01:04;96627.34;;;5.76;60.57
27425;BME280;15244;49.088;11.886;2023-02-03T02:06:08;96613.47;;;5.78;60.59
27425;BME280;15244;49.088;11.886;2023-02-03T02:11:20;96613.00;;;5.76;60.76
27425;BME280;15244;49.088;11.886;2023-02-03T02:22:17;96583.31;;;5.67;60.85
27425;BME280;15244;49.088;11.886;2023-02-03T02:33:07;96560.94;;;5.79;61.13
27425;BME280;15244;49.088;11.886;2023-02-03T02:38:36;96547.16;;;5.72;61.30
27425;BME280;15244;49.088;11.886;2023-02-03T02:43:55;96541.88;;;5.75;61.52
27425;BME280;15244;49.088;11.886;2023-02-03T02:49:12;96541.31;;;5.82;61.35
27425;BME280;15244;49.088;11.886;2023-02-03T02:54:20;96542.25;;;5.86;61.37
27425;BME280;15244;49.088;11.886;2023-02-03T02:59:29;96555.91;;;5.90;61.68
27425;BME280;15244;49.088;11.886;2023-02-03T03:04:39;96549.84;;;5.93;61.74
27425;BME280;15244;49.088;11.886;2023-02-03T03:10:00;96560.06;;;5.87;61.87
27425;BME280;15244;49.088;11.886;2023-02-03T03:15:13;96552.56;;;5.93;61.67
27425;BME280;15244;49.088;11.886;2023-02-03T03:20:23;96546.03;;;5.94;62.08
27425;BME280;15244;49.088;11.886;2023-02-03T03:25:48;96523.19;;;5.82;62.21
27425;BME280;15244;49.088;11.886;2023-02-03T03:30:56;96549.53;;;5.94;62.17
27425;BME280;15244;49.088;11.886;2023-02-03T03:36:17;96553.47;;;5.97;61.97
27425;BME280;15244;49.088;11.886;2023-02-03T03:47:15;96572.22;;;6.02;62.39
27425;BME280;15244;49.088;11.886;2023-02-03T03:52:33;96544.81;;;6.03;62.33
27425;BME280;15244;49.088;11.886;2023-02-03T03:57:53;96544.25;;;5.98;61.97
27425;BME280;15244;49.088;11.886;2023-02-03T04:03:00;96542.78;;;6.00;62.21
27425;BME280;15244;49.088;11.886;2023-02-03T04:08:02;96571.75;;;6.00;62.39
27425;BME280;15244;49.088;11.886;2023-02-03T04:13:11;96576.19;;;6.04;62.48
27425;BME280;15244;49.088;11.886;2023-02-03T04:18:17;96588.13;;;6.03;62.15
27425;BME280;15244;49.088;11.886;2023-02-03T04:23:19;96598.50;;;6.01;62.14
27425;BME280;15244;49.088;11.886;2023-02-03T04:28:25;96575.19;;;5.88;62.55
27425;BME280;15244;49.088;11.886;2023-02-03T04:33:54;96605.28;;;5.86;62.75
27425;BME280;15244;49.088;11.886;2023-02-03T04:38:59;96581.06;;;5.90;62.53
27425;BME280;15244;49.088;11.886;2023-02-03T04:44:05;96550.63;;;5.93;62.61
27425;BME280;15244;49.088;11.886;2023-02-03T04:49:12;96548.59;;;5.90;62.68
27425;BME280;15244;49.088;11.886;2023-02-03T04:54:18;96542.72;;;5.88;62.95
27425;BME280;15244;49.088;11.886;2023-02-03T04:59:19;96518.88;;;5.81;63.52
27425;BME280;15244;49.088;11.886;2023-02-03T05:04:26;96533.19;;;5.82;62.87
27425;BME280;15244;49.088;11.886;2023-02-03T05:09:33;96522.38;;;5.82;62.93
27425;BME280;15244;49.088;11.886;2023-02-03T05:14:38;96535.06;;;5.90;62.98
27425;BME280;15244;49.088;11.886;2023-02-03T05:19:41;96532.00;;;5.92;63.08
27425;BME280;15244;49.088;11.886;2023-02-03T05:24:56;96562.75;;;5.87;62.98
27425;BME280;15244;49.088;11.886;2023-02-03T05:30:05;96548.44;;;5.86;63.48
27425;BME280;15244;49.088;11.886;2023-02-03T05:35:10;96540.72;;;5.97;62.91
27425;BME280;15244;49.088;11.886;2023-02-03T05:40:23;96537.38;;;6.00;62.47
27425;BME280;15244;49.088;11.886;2023-02-03T05:45:47;96549.44;;;6.03;62.69
27425;BME280;15244;49.088;11.886;2023-02-03T05:51:04;96561.59;;;5.97;62.65
27425;BME280;15244;49.088;11.886;2023-02-03T05:56:08;96546.16;;;5.97;62.53
27425;BME280;15244;49.088;11.886;2023-02-03T06:01:12;96536.91;;;5.98;62.79
27425;BME280;15244;49.088;11.886;2023-02-03T06:06:15;96556.56;;;6.07;62.15
27425;BME280;15244;49.088;11.886;2023-02-03T06:11:19;96561.84;;;6.04;62.97
27425;BME280;15244;49.088;11.886;2023-02-03T06:16:24;96562.19;;;6.02;62.95
27425;BME280;15244;49.088;11.886;2023-02-03T06:21:29;96568.06;;;6.04;62.44
27425;BME280;15244;49.088;11.886;2023-02-03T06:26:30;96541.09;;;5.96;63.54
27425;BME280;15244;49.088;11.886;2023-02-03T06:31:34;96520.53;;;5.95;63.09
27425;BME280;15244;49.088;11.886;2023-02-03T06:36:40;96490.25;;;5.80;63.16
27425;BME280;15244;49.088;11.886;2023-02-03T06:41:50;96482.34;;;5.75;63.55
27425;BME280;15244;49.088;11.886;2023-02-03T06:46:55;96501.75;;;5.77;63.23
27425;BME280;15244;49.088;11.886;2023-02-03T06:52:01;96476.59;;;5.77;63.65
27425;BME280;15244;49.088;11.886;2023-02-03T06:57:13;96473.31;;;5.71;63.36
27425;BME280;15244;49.088;11.886;2023-02-03T07:02:16;96469.16;;;5.74;63.29
27425;BME280;15244;49.088;11.886;2023-02-03T07:07:20;96475.09;;;5.67;63.82
27425;BME280;15244;49.088;11.886;2023-02-03T07:12:21;96471.06;;;5.73;63.99
27425;BME280;15244;49.088;11.886;2023-02-03T07:17:26;96500.41;;;5.83;63.40
27425;BME280;15244;49.088;11.886;2023-02-03T07:22:30;96482.69;;;5.74;63.83
27425;BME280;15244;49.088;11.886;2023-02-03T07:27:31;96491.72;;;5.78;63.30
27425;BME280;15244;49.088;11.886;2023-02-03T07:32:35;96488.13;;;5.86;63.57
27425;BME280;15244;49.088;11.886;2023-02-03T07:42:54;96500.81;;;5.94;63.26
27425;BME280;15244;49.088;11.886;2023-02-03T07:48:00;96514.25;;;6.03;62.99
27425;BME280;15244;49.088;11.886;2023-02-03T07:53:09;96501.06;;;6.01;63.04
27425;BME280;15244;49.088;11.886;2023-02-03T08:03:34;96491.56;;;5.95;63.11
27425;BME280;15244;49.088;11.886;2023-02-03T08:08:38;96531.69;;;5.93;63.25
27425;BME280;15244;49.088;11.886;2023-02-03T08:13:49;96497.41;;;5.97;62.76
27425;BME280;15244;49.088;11.886;2023-02-03T08:18:50;96502.06;;;5.97;63.08
27425;BME280;15244;49.088;11.886;2023-02-03T08:23:54;96491.22;;;5.97;63.09
27425;BME280;15244;49.088;11.886;2023-02-03T08:28:56;96507.25;;;6.02;63.32
27425;BME280;15244;49.088;11.886;2023-02-03T08:34:01;96472.41;;;6.00;63.09
27425;BME280;15244;49.088;11.886;2023-02-03T08:39:08;96499.91;;;6.02;62.95
27425;BME280;15244;49.088;11.886;2023-02-03T08:44:16;96478.41;;;6.06;62.93
27425;BME280;15244;49.088;11.886;2023-02-03T08:49:20;96492.03;;;6.10;63.06
27425;BME280;15244;49.088;11.886;2023-02-03T08:54:26;96485.06;;;6.08;63.33
27425;BME280;15244;49.088;11.886;2023-02-03T08:59:28;96490.47;;;6.08;63.15
27425;BME280;15244;49.088;11.886;2023-02-03T09:04:39;96470.53;;;6.13;63.10
27425;BME280;15244;49.088;11.886;2023-02-03T09:09:42;96466.56;;;6.11;62.93
27425;BME280;15244;49.088;11.886;2023-02-03T09:14:46;96485.16;;;6.12;63.39
27425;BME280;15244;49.088;11.886;2023-02-03T09:19:50;96466.47;;;6.19;62.55
27425;BME280;15244;49.088;11.886;2023-02-03T09:24:54;96484.50;;;6.15;62.81
27425;BME280;15244;49.088;11.886;2023-02-03T09:29:55;96491.97;;;6.18;62.96
27425;BME280;15244;49.088;11.886;2023-02-03T09:35:04;96480.66;;;6.16;63.08
27425;BME280;15244;49.088;11.886;2023-02-03T09:40:08;96477.72;;;6.09;63.48
27425;BME280;15244;49.088;11.886;2023-02-03T09:45:21;96486.53;;;6.18;63.17
27425;BME280;15244;49.088;11.886;2023-02-03T09:50:31;96478.53;;;6.22;62.87
27425;BME280;15244;49.088;11.886;2023-02-03T09:55:44;96479.22;;;6.19;63.11
27425;BME280;15244;49.088;11.886;2023-02-03T10:01:03;96484.97;;;6.29;63.22
27425;BME280;15244;49.088;11.886;2023-02-03T10:06:39;96462.53;;;6.29;63.20
27425;BME280;15244;49.088;11.886;2023-02-03T10:22:22;96463.00;;;6.43;62.55
27425;BME280;15244;49.088;11.886;2023-02-03T10:27:31;96480.81;;;6.44;62.95
27425;BME280;15244;49.088;11.886;2023-02-03T10:32:35;96493.00;;;6.50;62.26
27425;BME280;15244;49.088;11.886;2023-02-03T10:37:47;96495.59;;;6.47;62.32
27425;BME280;15244;49.088;11.886;2023-02-03T10:42:56;96456.22;;;6.49;62.74
27425;BME280;15244;49.088;11.886;2023-02-03T10:48:19;96467.38;;;6.48;62.62
27425;BME280;15244;49.088;11.886;2023-02-03T10:53:34;96446.38;;;6.57;62.46
27425;BME280;15244;49.088;11.886;2023-02-03T10:58:47;96456.44;;;6.57;62.14
27425;BME280;15244;49.088;11.886;2023-02-03T11:09:22;96423.59;;;6.46;62.35
27425;BME280;15244;49.088;11.886;2023-02-03T11:14:46;96417.50;;;6.49;62.84
27425;BME280;15244;49.088;11.886;2023-02-03T11:19:58;96412.63;;;6.42;62.19
27425;BME280;15244;49.088;11.886;2023-02-03T11:25:26;96439.84;;;6.46;61.95
27425;BME280;15244;49.088;11.886;2023-02-03T11:30:32;96398.75;;;6.56;62.05
27425;BME280;15244;49.088;11.886;2023-02-03T11:35:36;96373.00;;;6.62;62.00
27425;BME280;15244;49.088;11.886;2023-02-03T11:40:45;96359.78;;;6.61;62.20
27425;BME280;15244;49.088;11.886;2023-02-03T11:46:10;96337.09;;;6.53;61.63
27425;BME280;15244;49.088;11.886;2023-02-03T11:51:41;96368.97;;;6.32;62.54
27425;BME280;15244;49.088;11.886;2023-02-03T12:02:55;96318.84;;;6.50;62.61
27425;BME280;15244;49.088;11.886;2023-02-03T12:14:37;96292.09;;;6.48;62.67
27425;BME280;15244;49.088;11.886;2023-02-03T12:19:27;96302.81;;;6.45;62.72
27425;BME280;15244;49.088;11.886;2023-02-03T12:30:41;96311.84;;;6.49;62.74
27425;BME280;15244;49.088;11.886;2023-02-03T12:36:07;96333.84;;;6.60;62.33
27425;BME280;15244;49.088;11.886;2023-02-03T12:41:19;96297.91;;;6.63;62.03
27425;BME280;15244;49.088;11.886;2023-02-03T12:46:26;96336.84;;;6.70;61.69
27425;BME280;15244;49.088;11.886;2023-02-03T12:52:25;96304.13;;;6.63;62.11
27425;BME280;15244;49.088;11.886;2023-02-03T12:57:33;96263.06;;;6.61;61.61
27425;BME280;15244;49.088;11.886;2023-02-03T13:03:25;96240.31;;;6.66;62.05
27425;BME280;15244;49.088;11.886;2023-02-03T13:08:33;96227.13;;;6.64;61.93
27425;BME280;15244;49.088;11.886;2023-02-03T13:14:22;96192.50;;;6.58;62.07
27425;BME280;15244;49.088;11.886;2023-02-03T13:19:41;96194.81;;;6.71;62.00
27425;BME280;15244;49.088;11.886;2023-02-03T13:30:24;96192.38;;;6.66;62.09
27425;BME280;15244;49.088;11.886;2023-02-03T13:41:21;96150.69;;;6.71;62.17
27425;BME280;15244;49.088;11.886;2023-02-03T13:46:32;96156.00;;;6.67;62.32
27425;BME280;15244;49.088;11.886;2023-02-03T13:51:45;96146.81;;;6.56;62.72
27425;BME280;15244;49.088;11.886;2023-02-03T13:56:57;96142.06;;;6.53;62.97
27425;BME280;15244;49.088;11.886;2023-02-03T14:02:29;96103.28;;;6.65;62.32
27425;BME280;15244;49.088;11.886;2023-02-03T14:07:38;96092.38;;;6.61;62.81
27425;BME280;15244;49.088;11.886;2023-02-03T14:17:54;96095.34;;;6.56;63.12
27425;BME280;15244;49.088;11.886;2023-02-03T14:23:09;96126.00;;;6.60;62.75
27425;BME280;15244;49.088;11.886;2023-02-03T14:28:16;96123.09;;;6.53;63.23
27425;BME280;15244;49.088;11.886;2023-02-03T14:50:25;96126.78;;;6.61;63.78
27425;BME280;15244;49.088;11.886;2023-02-03T14:56:01;96147.59;;;6.72;63.16
27425;BME280;15244;49.088;11.886;2023-02-03T15:01:22;96203.72;;;6.72;63.84
27425;BME280;15244;49.088;11.886;2023-02-03T15:06:45;96139.94;;;6.75;63.79
27425;BME280;15244;49.088;11.886;2023-02-03T15:12:00;96171.13;;;6.68;63.53
27425;BME280;15244;49.088;11.886;2023-02-03T15:17:20;96206.97;;;6.78;63.25
27425;BME280;15244;49.088;11.886;2023-02-03T15:22:26;96183.81;;;6.80;63.76
27425;BME280;15244;49.088;11.886;2023-02-03T15:27:31;96201.81;;;6.88;63.23
27425;BME280;15244;49.088;11.886;2023-02-03T15:32:38;96196.25;;;6.81;63.71
27425;BME280;15244;49.088;11.886;2023-02-03T15:37:55;96208.38;;;6.71;64.06
27425;BME280;15244;49.088;11.886;2023-02-03T15:43:13;96210.13;;;6.80;64.01
27425;BME280;15244;49.088;11.886;2023-02-03T15:48:44;96199.38;;;6.83;63.95
27425;BME280;15244;49.088;11.886;2023-02-03T15:53:55;96147.72;;;6.92;63.83
27425;BME280;15244;49.088;11.886;2023-02-03T15:58:58;96175.16;;;6.90;63.64
27425;BME280;15244;49.088;11.886;2023-02-03T16:04:10;96191.53;;;6.94;63.09
27425;BME280;15244;49.088;11.886;2023-02-03T16:09:32;96161.97;;;6.89;63.44
27425;BME280;15244;49.088;11.886;2023-02-03T16:14:44;96203.22;;;6.82;63.72
27425;BME280;15244;49.088;11.886;2023-02-03T16:25:23;96163.81;;;6.85;63.79
27425;BME280;15244;49.088;11.886;2023-02-03T16:30:28;96164.06;;;6.95;63.81
27425;BME280;15244;49.088;11.886;2023-02-03T16:35:55;96180.69;;;6.94;64.06
27425;BME280;15244;49.088;11.886;2023-02-03T16:41:16;96142.97;;;6.73;64.14
27425;BME280;15244;49.088;11.886;2023-02-03T16:46:46;96100.25;;;6.82;64.51
27425;BME280;15244;49.088;11.886;2023-02-03T16:52:12;96139.16;;;6.74;64.95
27425;BME280;15244;49.088;11.886;2023-02-03T16:57:17;96109.41;;;6.62;64.97
27425;BME280;15244;49.088;11.886;2023-02-03T17:02:25;96112.75;;;6.71;64.80
27425;BME280;15244;49.088;11.886;2023-02-03T17:07:27;96123.94;;;6.85;64.73
27425;BME280;15244;49.088;11.886;2023-02-03T17:12:30;96126.91;;;6.96;64.43
27425;BME280;15244;49.088;11.886;2023-02-03T17:17:33;96187.94;;;6.90;64.28
27425;BME280;15244;49.088;11.886;2023-02-03T17:22:56;96181.03;;;7.08;64.42
27425;BME280;15244;49.088;11.886;2023-02-03T17:27:58;96170.19;;;6.92;64.53
27425;BME280;15244;49.088;11.886;2023-02-03T17:33:06;96164.31;;;7.06;64.60
27425;BME280;15244;49.088;11.886;2023-02-03T17:38:12;96167.91;;;7.10;64.14
27425;BME280;15244;49.088;11.886;2023-02-03T17:43:22;96210.25;;;7.15;63.91
27425;BME280;15244;49.088;11.886;2023-02-03T17:48:44;96212.63;;;7.16;64.36
27425;BME280;15244;49.088;11.886;2023-02-03T17:54:04;96195.31;;;7.37;63.60
27425;BME280;15244;49.088;11.886;2023-02-03T17:59:16;96188.50;;;7.27;64.26
27425;BME280;15244;49.088;11.886;2023-02-03T18:04:22;96184.56;;;7.25;64.44
27425;BME280;15244;49.088;11.886;2023-02-03T18:09:29;96201.34;;;7.30;64.03
27425;BME280;15244;49.088;11.886;2023-02-03T18:14:30;96188.94;;;7.29;64.54
27425;BME280;15244;49.088;11.886;2023-02-03T18:19:34;96169.13;;;7.29;64.53
27425;BME280;15244;49.088;11.886;2023-02-03T18:24:37;96203.97;;;7.27;64.61
27425;BME280;15244;49.088;11.886;2023-02-03T18:29:44;96230.66;;;7.25;64.55
27425;BME280;15244;49.088;11.886;2023-02-03T18:34:46;96207.81;;;7.42;64.31
27425;BME280;15244;49.088;11.886;2023-02-03T18:39:49;96223.75;;;7.43;64.49
27425;BME280;15244;49.088;11.886;2023-02-03T18:44:56;96231.97;;;7.31;65.01
27425;BME280;15244;49.088;11.886;2023-02-03T18:50:03;96241.50;;;7.56;64.29
27425;BME280;15244;49.088;11.886;2023-02-03T18:55:10;96239.84;;;7.36;64.73
27425;BME280;15244;49.088;11.886;2023-02-03T19:00:15;96251.03;;;7.50;64.43
27425;BME280;15244;49.088;11.886;2023-02-03T19:05:27;96257.88;;;7.60;64.07
27425;BME280;15244;49.088;11.886;2023-02-03T19:10:35;96257.50;;;7.62;63.93
27425;BME280;15244;49.088;11.886;2023-02-03T19:15:40;96259.97;;;7.67;63.68
27425;BME280;15244;49.088;11.886;2023-02-03T19:20:44;96252.19;;;7.65;63.81
27425;BME280;15244;49.088;11.886;2023-02-03T19:25:49;96263.47;;;7.67;63.76
27425;BME280;15244;49.088;11.886;2023-02-03T19:30:51;96268.66;;;7.72;63.94
27425;BME280;15244;49.088;11.886;2023-02-03T19:36:08;96246.66;;;7.77;63.53
27425;BME280;15244;49.088;11.886;2023-02-03T19:41:14;96266.44;;;7.78;63.28
27425;BME280;15244;49.088;11.886;2023-02-03T19:46:23;96272.59;;;7.75;63.46
27425;BME280;15244;49.088;11.886;2023-02-03T19:51:30;96286.84;;;7.72;63.62
27425;BME280;15244;49.088;11.886;2023-02-03T19:56:34;96286.75;;;7.68;63.74
27425;BME280;15244;49.088;11.886;2023-02-03T20:01:38;96266.97;;;7.84;63.63
27425;BME280;15244;49.088;11.886;2023-02-03T20:06:42;96302.50;;;7.78;63.49
27425;BME280;15244;49.088;11.886;2023-02-03T20:11:45;96332.28;;;7.75;63.49
27425;BME280;15244;49.088;11.886;2023-02-03T20:16:55;96315.19;;;7.74;63.74
27425;BME280;15244;49.088;11.886;2023-02-03T20:21:57;96303.81;;;7.69;64.02
27425;BME280;15244;49.088;11.886;2023-02-03T20:27:04;96307.16;;;7.78;63.84
27425;BME280;15244;49.088;11.886;2023-02-03T20:32:08;96328.69;;;7.71;63.93
27425;BME280;15244;49.088;11.886;2023-02-03T20:37:15;96332.44;;;7.66;63.40
27425;BME280;15244;49.088;11.886;2023-02-03T20:42:21;96324.94;;;7.75;63.14
27425;BME280;15244;49.088;11.886;2023-02-03T20:47:30;96321.69;;;7.70;62.62
27425;BME280;15244;49.088;11.886;2023-02-03T20:52:32;96317.50;;;7.72;62.05
27425;BME280;15244;49.088;11.886;2023-02-03T20:57:38;96358.38;;;7.95;61.92
27425;BME280;15244;49.088;11.886;2023-02-03T21:02:44;96325.53;;;7.85;60.96
27425;BME280;15244;49.088;11.886;2023-02-03T21:08:26;96335.00;;;7.91;60.75
27425;BME280;15244;49.088;11.886;2023-02-03T21:13:33;96323.25;;;7.87;60.95
27425;BME280;15244;49.088;11.886;2023-02-03T21:18:46;96338.03;;;8.05;60.75
27425;BME280;15244;49.088;11.886;2023-02-03T21:23:51;96347.41;;;8.08;60.62
27425;BME280;15244;49.088;11.886;2023-02-03T21:28:57;96344.69;;;8.08;60.71
27425;BME280;15244;49.088;11.886;2023-02-03T21:34:41;96326.94;;;8.10;60.34
27425;BME280;15244;49.088;11.886;2023-02-03T21:39:48;96323.09;;;7.95;60.60
27425;BME280;15244;49.088;11.886;2023-02-03T21:44:55;96342.78;;;7.92;60.27
27425;BME280;15244;49.088;11.886;2023-02-03T21:50:01;96336.03;;;7.86;59.70
27425;BME280;15244;49.088;11.886;2023-02-03T21:55:11;96356.88;;;7.82;59.00
27425;BME280;15244;49.088;11.886;2023-02-03T22:05:45;96380.72;;;7.89;59.29
27425;BME280;15244;49.088;11.886;2023-02-03T22:10:49;96382.00;;;7.95;59.23
27425;BME280;15244;49.088;11.886;2023-02-03T22:15:51;96398.50;;;7.86;58.35
27425;BME280;15244;49.088;11.886;2023-02-03T22:20:53;96402.50;;;7.76;58.71
27425;BME280;15244;49.088;11.886;2023-02-03T22:25:57;96406.56;;;7.82;58.70
27425;BME280;15244;49.088;11.886;2023-02-03T22:31:05;96401.28;;;7.90;58.52
27425;BME280;15244;49.088;11.886;2023-02-03T22:36:09;96394.53;;;7.84;58.82
27425;BME280;15244;49.088;11.886;2023-02-03T22:41:19;96402.69;;;7.84;58.47
27425;BME280;15244;49.088;11.886;2023-02-03T22:46:22;96410.38;;;7.81;58.47
27425;BME280;15244;49.088;11.886;2023-02-03T22:51:33;96431.88;;;7.58;58.02
27425;BME280;15244;49.088;11.886;2023-02-03T22:56:34;96443.28;;;7.64;57.95
27425;BME280;15244;49.088;11.886;2023-02-03T23:01:36;96450.28;;;7.65;57.85
27425;BME280;15244;49.088;11.886;2023-02-03T23:06:44;96455.03;;;7.68;57.96
27425;BME280;15244;49.088;11.886;2023-02-03T23:11:49;96460.47;;;7.68;57.28
27425;BME280;15244;49.088;11.886;2023-02-03T23:16:58;96500.97;;;7.61;57.30
27425;BME280;15244;49.088;11.886;2023-02-03T23:22:01;96461.00;;;7.46;57.46
27425;BME280;15244;49.088;11.886;2023-02-03T23:27:05;96469.94;;;7.34;57.15
27425;BME280;15244;49.088;11.886;2023-02-03T23:32:09;96482.50;;;7.38;57.10
27425;BME280;15244;49.088;11.886;2023-02-03T23:37:11;96458.53;;;7.41;57.36
27425;BME280;15244;49.088;11.886;2023-02-03T23:42:23;96447.91;;;7.35;56.69
27425;BME280;15244;49.088;11.886;2023-02-03T23:47:29;96453.13;;;7.28;57.18
27425;BME280;15244;49.088;11.886;2023-02-03T23:52:35;96469.13;;;7.18;56.58
27425;BME280;15244;49.088;11.886;2023-02-03T23:57:44;96479.41;;;7.12;56.61
